Terminal Aerodrome Forecast
Issued by NWS

Current Version | Previous Version | Text Only | Print | Product List | Glossary On
Versions: 1 2 3 4 5 6 7 8 9 10 11 12 13 14 15 16 17
000
FTUS45 KFGZ 231734
TAFGCN
TAF
KGCN 231734Z 2318/2418 24012G22KT P6SM VCSH SCT012 BKN025 BKN040
      TEMPO 2320/2324 2SM -SHSN BR OVC015
     FM240200 26008KT P6SM BKN030 BKN050
     FM240500 26005KT P6SM SCT035 SCT050=

USA.gov is the U.S. government's official web portal to all federal, state and local government web resources and services.